sensor_id;sensor_type;location;lat;lon;timestamp;P1;durP1;ratioP1;P2;durP2;ratioP2
32918;SDS011;19280;42.646;21.150;2022-10-16T00:01:06;73.13;;;26.73;;
32918;SDS011;19280;42.646;21.150;2022-10-16T00:03:33;53.28;;;25.95;;
32918;SDS011;19280;42.646;21.150;2022-10-16T00:06:00;53.75;;;26.10;;
32918;SDS011;19280;42.646;21.150;2022-10-16T00:08:26;55.30;;;27.55;;
32918;SDS011;19280;42.646;21.150;2022-10-16T00:10:52;56.15;;;27.42;;
32918;SDS011;19280;42.646;21.150;2022-10-16T00:13:18;53.92;;;25.90;;
32918;SDS011;19280;42.646;21.150;2022-10-16T00:15:45;53.88;;;25.55;;
32918;SDS011;19280;42.646;21.150;2022-10-16T00:18:12;53.03;;;27.30;;
32918;SDS011;19280;42.646;21.150;2022-10-16T00:20:39;42.65;;;24.15;;
32918;SDS011;19280;42.646;21.150;2022-10-16T00:23:05;38.55;;;22.52;;
32918;SDS011;19280;42.646;21.150;2022-10-16T00:25:32;40.95;;;20.92;;
32918;SDS011;19280;42.646;21.150;2022-10-16T00:27:59;42.22;;;20.35;;
32918;SDS011;19280;42.646;21.150;2022-10-16T00:30:25;50.08;;;19.73;;
32918;SDS011;19280;42.646;21.150;2022-10-16T00:32:52;39.70;;;18.95;;
32918;SDS011;19280;42.646;21.150;2022-10-16T00:35:18;47.15;;;18.70;;
32918;SDS011;19280;42.646;21.150;2022-10-16T00:37:45;47.22;;;18.50;;
32918;SDS011;19280;42.646;21.150;2022-10-16T00:40:11;28.90;;;16.83;;
32918;SDS011;19280;42.646;21.150;2022-10-16T00:42:37;35.53;;;17.38;;
32918;SDS011;19280;42.646;21.150;2022-10-16T00:45:03;40.38;;;17.25;;
32918;SDS011;19280;42.646;21.150;2022-10-16T00:47:37;29.02;;;16.98;;
32918;SDS011;19280;42.646;21.150;2022-10-16T00:50:11;35.25;;;17.30;;
32918;SDS011;19280;42.646;21.150;2022-10-16T00:52:39;31.88;;;17.05;;
32918;SDS011;19280;42.646;21.150;2022-10-16T00:55:07;33.88;;;16.98;;
32918;SDS011;19280;42.646;21.150;2022-10-16T00:57:35;33.80;;;16.45;;
32918;SDS011;19280;42.646;21.150;2022-10-16T01:00:02;34.22;;;17.02;;
32918;SDS011;19280;42.646;21.150;2022-10-16T01:02:28;34.33;;;18.52;;
32918;SDS011;19280;42.646;21.150;2022-10-16T01:04:55;38.42;;;17.40;;
32918;SDS011;19280;42.646;21.150;2022-10-16T01:12:24;39.05;;;19.02;;
32918;SDS011;19280;42.646;21.150;2022-10-16T01:14:58;41.72;;;18.08;;
32918;SDS011;19280;42.646;21.150;2022-10-16T01:17:49;38.28;;;17.20;;
32918;SDS011;19280;42.646;21.150;2022-10-16T01:20:25;35.42;;;17.60;;
32918;SDS011;19280;42.646;21.150;2022-10-16T01:23:04;34.53;;;17.92;;
32918;SDS011;19280;42.646;21.150;2022-10-16T01:28:16;34.75;;;17.83;;
32918;SDS011;19280;42.646;21.150;2022-10-16T01:30:44;38.53;;;17.08;;
32918;SDS011;19280;42.646;21.150;2022-10-16T01:33:14;34.08;;;18.17;;
32918;SDS011;19280;42.646;21.150;2022-10-16T01:35:42;33.63;;;17.23;;
32918;SDS011;19280;42.646;21.150;2022-10-16T01:40:37;34.47;;;19.27;;
32918;SDS011;19280;42.646;21.150;2022-10-16T01:43:05;32.47;;;18.63;;
32918;SDS011;19280;42.646;21.150;2022-10-16T01:45:32;33.35;;;17.83;;
32918;SDS011;19280;42.646;21.150;2022-10-16T01:48:00;57.17;;;23.90;;
32918;SDS011;19280;42.646;21.150;2022-10-16T01:50:29;48.67;;;27.05;;
32918;SDS011;19280;42.646;21.150;2022-10-16T01:52:55;83.25;;;43.53;;
32918;SDS011;19280;42.646;21.150;2022-10-16T01:55:22;81.20;;;43.90;;
32918;SDS011;19280;42.646;21.150;2022-10-16T01:57:51;79.72;;;43.00;;
32918;SDS011;19280;42.646;21.150;2022-10-16T02:00:19;89.40;;;42.35;;
32918;SDS011;19280;42.646;21.150;2022-10-16T02:02:47;88.50;;;43.15;;
32918;SDS011;19280;42.646;21.150;2022-10-16T02:07:41;79.10;;;42.40;;
32918;SDS011;19280;42.646;21.150;2022-10-16T02:10:07;79.70;;;42.28;;
32918;SDS011;19280;42.646;21.150;2022-10-16T02:12:34;74.13;;;42.03;;
32918;SDS011;19280;42.646;21.150;2022-10-16T02:15:02;75.57;;;38.63;;
32918;SDS011;19280;42.646;21.150;2022-10-16T02:17:28;74.90;;;38.60;;
32918;SDS011;19280;42.646;21.150;2022-10-16T02:19:55;72.50;;;39.78;;
32918;SDS011;19280;42.646;21.150;2022-10-16T02:22:23;76.32;;;38.63;;
32918;SDS011;19280;42.646;21.150;2022-10-16T02:25:10;82.57;;;41.13;;
32918;SDS011;19280;42.646;21.150;2022-10-16T02:28:01;62.53;;;35.97;;
32918;SDS011;19280;42.646;21.150;2022-10-16T02:32:51;68.00;;;35.17;;
32918;SDS011;19280;42.646;21.150;2022-10-16T02:35:18;67.40;;;37.22;;
32918;SDS011;19280;42.646;21.150;2022-10-16T02:37:46;81.15;;;39.42;;
32918;SDS011;19280;42.646;21.150;2022-10-16T02:40:12;81.03;;;37.47;;
32918;SDS011;19280;42.646;21.150;2022-10-16T02:42:39;79.30;;;38.20;;
32918;SDS011;19280;42.646;21.150;2022-10-16T02:45:06;65.35;;;36.60;;
32918;SDS011;19280;42.646;21.150;2022-10-16T02:47:33;64.78;;;34.70;;
32918;SDS011;19280;42.646;21.150;2022-10-16T02:49:59;74.43;;;37.17;;
32918;SDS011;19280;42.646;21.150;2022-10-16T02:52:25;78.68;;;40.20;;
32918;SDS011;19280;42.646;21.150;2022-10-16T02:54:51;75.75;;;37.17;;
32918;SDS011;19280;42.646;21.150;2022-10-16T02:57:17;66.35;;;38.20;;
32918;SDS011;19280;42.646;21.150;2022-10-16T02:59:44;71.75;;;36.15;;
32918;SDS011;19280;42.646;21.150;2022-10-16T03:02:10;63.30;;;35.42;;
32918;SDS011;19280;42.646;21.150;2022-10-16T03:04:37;64.07;;;32.97;;
32918;SDS011;19280;42.646;21.150;2022-10-16T03:07:03;61.70;;;31.45;;
32918;SDS011;19280;42.646;21.150;2022-10-16T03:09:29;51.80;;;24.90;;
32918;SDS011;19280;42.646;21.150;2022-10-16T03:11:55;53.75;;;26.80;;
32918;SDS011;19280;42.646;21.150;2022-10-16T03:14:22;38.97;;;22.85;;
32918;SDS011;19280;42.646;21.150;2022-10-16T03:16:48;47.90;;;23.38;;
32918;SDS011;19280;42.646;21.150;2022-10-16T03:19:15;43.22;;;21.85;;
32918;SDS011;19280;42.646;21.150;2022-10-16T03:21:41;43.30;;;22.98;;
32918;SDS011;19280;42.646;21.150;2022-10-16T03:24:07;52.22;;;24.52;;
32918;SDS011;19280;42.646;21.150;2022-10-16T03:26:33;53.40;;;26.55;;
32918;SDS011;19280;42.646;21.150;2022-10-16T03:29:00;63.97;;;29.73;;
32918;SDS011;19280;42.646;21.150;2022-10-16T03:31:28;59.28;;;32.13;;
32918;SDS011;19280;42.646;21.150;2022-10-16T03:33:54;58.30;;;31.20;;
32918;SDS011;19280;42.646;21.150;2022-10-16T03:36:20;64.97;;;33.55;;
32918;SDS011;19280;42.646;21.150;2022-10-16T03:38:47;72.35;;;37.30;;
32918;SDS011;19280;42.646;21.150;2022-10-16T03:41:13;72.78;;;36.90;;
32918;SDS011;19280;42.646;21.150;2022-10-16T03:43:39;75.55;;;37.78;;
32918;SDS011;19280;42.646;21.150;2022-10-16T03:46:05;139.32;;;70.35;;
32918;SDS011;19280;42.646;21.150;2022-10-16T03:48:31;123.68;;;57.28;;
32918;SDS011;19280;42.646;21.150;2022-10-16T03:50:57;111.22;;;56.65;;
32918;SDS011;19280;42.646;21.150;2022-10-16T03:53:24;97.32;;;47.28;;
32918;SDS011;19280;42.646;21.150;2022-10-16T03:55:50;90.72;;;43.20;;
32918;SDS011;19280;42.646;21.150;2022-10-16T03:58:16;86.70;;;37.30;;
32918;SDS011;19280;42.646;21.150;2022-10-16T04:00:43;90.85;;;39.95;;
32918;SDS011;19280;42.646;21.150;2022-10-16T04:03:09;98.57;;;41.75;;
32918;SDS011;19280;42.646;21.150;2022-10-16T04:05:36;76.78;;;38.22;;
32918;SDS011;19280;42.646;21.150;2022-10-16T04:08:02;68.43;;;35.75;;
32918;SDS011;19280;42.646;21.150;2022-10-16T04:10:28;67.47;;;35.35;;
32918;SDS011;19280;42.646;21.150;2022-10-16T04:12:54;67.10;;;34.90;;
32918;SDS011;19280;42.646;21.150;2022-10-16T04:15:21;71.47;;;36.88;;
32918;SDS011;19280;42.646;21.150;2022-10-16T04:17:47;82.32;;;38.58;;
32918;SDS011;19280;42.646;21.150;2022-10-16T04:20:13;79.38;;;36.80;;
32918;SDS011;19280;42.646;21.150;2022-10-16T04:22:39;73.22;;;34.60;;
32918;SDS011;19280;42.646;21.150;2022-10-16T04:25:06;74.65;;;30.95;;
32918;SDS011;19280;42.646;21.150;2022-10-16T04:27:32;54.33;;;27.02;;
32918;SDS011;19280;42.646;21.150;2022-10-16T04:29:58;52.30;;;26.73;;
32918;SDS011;19280;42.646;21.150;2022-10-16T04:32:25;63.42;;;28.60;;
32918;SDS011;19280;42.646;21.150;2022-10-16T04:34:51;69.53;;;29.02;;
32918;SDS011;19280;42.646;21.150;2022-10-16T04:37:17;63.35;;;29.60;;
32918;SDS011;19280;42.646;21.150;2022-10-16T04:39:43;59.53;;;27.85;;
32918;SDS011;19280;42.646;21.150;2022-10-16T04:42:10;46.65;;;28.08;;
32918;SDS011;19280;42.646;21.150;2022-10-16T04:44:36;52.55;;;29.23;;
32918;SDS011;19280;42.646;21.150;2022-10-16T04:47:02;53.88;;;29.17;;
32918;SDS011;19280;42.646;21.150;2022-10-16T04:49:29;59.10;;;29.55;;
32918;SDS011;19280;42.646;21.150;2022-10-16T04:51:55;55.92;;;29.20;;
32918;SDS011;19280;42.646;21.150;2022-10-16T04:54:22;57.67;;;28.60;;
32918;SDS011;19280;42.646;21.150;2022-10-16T04:56:48;63.60;;;30.17;;
32918;SDS011;19280;42.646;21.150;2022-10-16T04:59:16;67.75;;;30.67;;
32918;SDS011;19280;42.646;21.150;2022-10-16T05:01:42;62.08;;;29.85;;
32918;SDS011;19280;42.646;21.150;2022-10-16T05:04:09;67.70;;;29.92;;
32918;SDS011;19280;42.646;21.150;2022-10-16T05:06:36;49.75;;;25.40;;
32918;SDS011;19280;42.646;21.150;2022-10-16T05:09:03;56.88;;;27.35;;
32918;SDS011;19280;42.646;21.150;2022-10-16T05:11:29;54.92;;;28.35;;
32918;SDS011;19280;42.646;21.150;2022-10-16T05:13:56;50.78;;;27.75;;
32918;SDS011;19280;42.646;21.150;2022-10-16T05:16:22;55.17;;;27.02;;
32918;SDS011;19280;42.646;21.150;2022-10-16T05:18:48;52.88;;;28.10;;
32918;SDS011;19280;42.646;21.150;2022-10-16T05:21:14;58.00;;;25.98;;
32918;SDS011;19280;42.646;21.150;2022-10-16T05:23:40;39.67;;;25.40;;
32918;SDS011;19280;42.646;21.150;2022-10-16T05:26:06;54.60;;;24.02;;
32918;SDS011;19280;42.646;21.150;2022-10-16T05:28:32;43.03;;;23.83;;
32918;SDS011;19280;42.646;21.150;2022-10-16T05:30:58;46.08;;;22.80;;
32918;SDS011;19280;42.646;21.150;2022-10-16T05:33:25;40.90;;;22.13;;
32918;SDS011;19280;42.646;21.150;2022-10-16T05:35:51;30.75;;;19.27;;
32918;SDS011;19280;42.646;21.150;2022-10-16T05:38:18;30.75;;;16.45;;
32918;SDS011;19280;42.646;21.150;2022-10-16T05:40:50;21.45;;;12.52;;
32918;SDS011;19280;42.646;21.150;2022-10-16T05:43:16;20.52;;;12.00;;
32918;SDS011;19280;42.646;21.150;2022-10-16T05:45:42;22.98;;;9.80;;
32918;SDS011;19280;42.646;21.150;2022-10-16T05:48:08;14.82;;;9.40;;
32918;SDS011;19280;42.646;21.150;2022-10-16T05:50:35;14.15;;;9.55;;
32918;SDS011;19280;42.646;21.150;2022-10-16T05:53:01;18.58;;;11.55;;
32918;SDS011;19280;42.646;21.150;2022-10-16T05:55:27;21.17;;;11.10;;
32918;SDS011;19280;42.646;21.150;2022-10-16T05:57:56;20.20;;;11.27;;
32918;SDS011;19280;42.646;21.150;2022-10-16T06:00:22;20.75;;;10.63;;
32918;SDS011;19280;42.646;21.150;2022-10-16T06:02:48;18.83;;;11.10;;
32918;SDS011;19280;42.646;21.150;2022-10-16T06:05:14;17.55;;;10.15;;
32918;SDS011;19280;42.646;21.150;2022-10-16T06:07:40;16.50;;;9.95;;
32918;SDS011;19280;42.646;21.150;2022-10-16T06:10:07;17.73;;;10.35;;
32918;SDS011;19280;42.646;21.150;2022-10-16T06:12:33;20.27;;;11.18;;
32918;SDS011;19280;42.646;21.150;2022-10-16T06:15:00;23.08;;;12.35;;
32918;SDS011;19280;42.646;21.150;2022-10-16T06:17:26;21.60;;;11.77;;
32918;SDS011;19280;42.646;21.150;2022-10-16T06:19:52;23.30;;;10.65;;
32918;SDS011;19280;42.646;21.150;2022-10-16T06:22:18;19.05;;;9.77;;
32918;SDS011;19280;42.646;21.150;2022-10-16T06:24:44;16.02;;;8.52;;
32918;SDS011;19280;42.646;21.150;2022-10-16T06:27:12;20.27;;;8.48;;
32918;SDS011;19280;42.646;21.150;2022-10-16T06:29:38;26.75;;;10.63;;
32918;SDS011;19280;42.646;21.150;2022-10-16T06:32:04;17.83;;;10.85;;
32918;SDS011;19280;42.646;21.150;2022-10-16T06:34:31;16.15;;;9.88;;
32918;SDS011;19280;42.646;21.150;2022-10-16T06:36:57;15.25;;;8.95;;
32918;SDS011;19280;42.646;21.150;2022-10-16T06:39:23;14.65;;;8.63;;
32918;SDS011;19280;42.646;21.150;2022-10-16T06:41:54;16.55;;;9.45;;
32918;SDS011;19280;42.646;21.150;2022-10-16T06:44:20;15.77;;;10.00;;
32918;SDS011;19280;42.646;21.150;2022-10-16T06:46:46;24.35;;;10.05;;
32918;SDS011;19280;42.646;21.150;2022-10-16T06:49:12;21.05;;;11.40;;
32918;SDS011;19280;42.646;21.150;2022-10-16T06:51:40;13.88;;;8.35;;
32918;SDS011;19280;42.646;21.150;2022-10-16T06:54:07;15.23;;;8.60;;
32918;SDS011;19280;42.646;21.150;2022-10-16T06:56:33;11.18;;;8.70;;
32918;SDS011;19280;42.646;21.150;2022-10-16T06:58:59;22.88;;;12.70;;
32918;SDS011;19280;42.646;21.150;2022-10-16T07:01:27;15.07;;;8.93;;
32918;SDS011;19280;42.646;21.150;2022-10-16T07:03:53;9.98;;;6.88;;
32918;SDS011;19280;42.646;21.150;2022-10-16T07:06:21;9.55;;;7.65;;
32918;SDS011;19280;42.646;21.150;2022-10-16T07:08:48;10.60;;;8.00;;
32918;SDS011;19280;42.646;21.150;2022-10-16T07:11:16;19.58;;;9.73;;
32918;SDS011;19280;42.646;21.150;2022-10-16T07:13:43;17.90;;;10.80;;
32918;SDS011;19280;42.646;21.150;2022-10-16T07:16:10;21.30;;;10.63;;
32918;SDS011;19280;42.646;21.150;2022-10-16T07:18:37;12.73;;;10.23;;
32918;SDS011;19280;42.646;21.150;2022-10-16T07:21:08;16.45;;;10.88;;
32918;SDS011;19280;42.646;21.150;2022-10-16T07:23:35;13.55;;;10.32;;
32918;SDS011;19280;42.646;21.150;2022-10-16T07:26:01;15.40;;;11.00;;
32918;SDS011;19280;42.646;21.150;2022-10-16T07:28:27;13.20;;;9.20;;
32918;SDS011;19280;42.646;21.150;2022-10-16T07:30:54;14.15;;;10.32;;
32918;SDS011;19280;42.646;21.150;2022-10-16T07:33:20;15.65;;;10.88;;
32918;SDS011;19280;42.646;21.150;2022-10-16T07:35:53;20.08;;;9.68;;
32918;SDS011;19280;42.646;21.150;2022-10-16T07:38:20;16.50;;;10.18;;
32918;SDS011;19280;42.646;21.150;2022-10-16T07:40:46;17.98;;;10.55;;
32918;SDS011;19280;42.646;21.150;2022-10-16T07:43:13;23.60;;;9.77;;
32918;SDS011;19280;42.646;21.150;2022-10-16T07:45:46;14.20;;;10.68;;
32918;SDS011;19280;42.646;21.150;2022-10-16T07:48:13;14.75;;;10.27;;
32918;SDS011;19280;42.646;21.150;2022-10-16T07:50:39;14.25;;;11.00;;
32918;SDS011;19280;42.646;21.150;2022-10-16T07:53:06;17.52;;;11.38;;
32918;SDS011;19280;42.646;21.150;2022-10-16T07:55:32;19.05;;;12.35;;
32918;SDS011;19280;42.646;21.150;2022-10-16T07:57:58;18.48;;;11.20;;
32918;SDS011;19280;42.646;21.150;2022-10-16T08:00:24;17.92;;;10.68;;
32918;SDS011;19280;42.646;21.150;2022-10-16T08:02:50;15.93;;;10.95;;
32918;SDS011;19280;42.646;21.150;2022-10-16T08:05:16;15.95;;;10.63;;
32918;SDS011;19280;42.646;21.150;2022-10-16T08:07:43;14.50;;;10.30;;
32918;SDS011;19280;42.646;21.150;2022-10-16T08:10:17;17.67;;;11.00;;
32918;SDS011;19280;42.646;21.150;2022-10-16T08:12:44;15.82;;;10.85;;
32918;SDS011;19280;42.646;21.150;2022-10-16T08:15:10;25.92;;;11.27;;
32918;SDS011;19280;42.646;21.150;2022-10-16T08:17:37;17.67;;;10.52;;
32918;SDS011;19280;42.646;21.150;2022-10-16T08:20:03;19.15;;;11.02;;
32918;SDS011;19280;42.646;21.150;2022-10-16T08:22:30;23.38;;;11.50;;
32918;SDS011;19280;42.646;21.150;2022-10-16T08:24:57;17.60;;;10.98;;
32918;SDS011;19280;42.646;21.150;2022-10-16T08:27:23;19.70;;;11.30;;
32918;SDS011;19280;42.646;21.150;2022-10-16T08:29:49;18.08;;;10.68;;
32918;SDS011;19280;42.646;21.150;2022-10-16T08:32:15;17.20;;;11.02;;
32918;SDS011;19280;42.646;21.150;2022-10-16T08:34:41;14.15;;;10.70;;
32918;SDS011;19280;42.646;21.150;2022-10-16T08:37:07;17.50;;;11.10;;
32918;SDS011;19280;42.646;21.150;2022-10-16T08:39:36;13.77;;;10.25;;
32918;SDS011;19280;42.646;21.150;2022-10-16T08:47:23;16.83;;;10.48;;
32918;SDS011;19280;42.646;21.150;2022-10-16T08:49:55;16.67;;;10.63;;
32918;SDS011;19280;42.646;21.150;2022-10-16T08:52:22;16.42;;;9.85;;
32918;SDS011;19280;42.646;21.150;2022-10-16T08:54:49;19.08;;;11.38;;
32918;SDS011;19280;42.646;21.150;2022-10-16T08:57:25;23.45;;;10.98;;
32918;SDS011;19280;42.646;21.150;2022-10-16T08:59:52;15.38;;;11.43;;
32918;SDS011;19280;42.646;21.150;2022-10-16T09:02:32;17.30;;;11.80;;
32918;SDS011;19280;42.646;21.150;2022-10-16T09:12:45;16.70;;;11.90;;
32918;SDS011;19280;42.646;21.150;2022-10-16T09:23:30;18.83;;;11.75;;
32918;SDS011;19280;42.646;21.150;2022-10-16T09:25:57;17.67;;;12.07;;
32918;SDS011;19280;42.646;21.150;2022-10-16T09:28:24;15.38;;;11.40;;
32918;SDS011;19280;42.646;21.150;2022-10-16T09:30:50;17.65;;;11.55;;
32918;SDS011;19280;42.646;21.150;2022-10-16T09:33:17;17.60;;;12.15;;
32918;SDS011;19280;42.646;21.150;2022-10-16T09:35:44;19.85;;;12.90;;
32918;SDS011;19280;42.646;21.150;2022-10-16T09:38:32;16.65;;;12.50;;
32918;SDS011;19280;42.646;21.150;2022-10-16T09:40:58;21.40;;;13.73;;
32918;SDS011;19280;42.646;21.150;2022-10-16T09:43:25;21.50;;;13.73;;
32918;SDS011;19280;42.646;21.150;2022-10-16T09:45:59;19.88;;;13.32;;
32918;SDS011;19280;42.646;21.150;2022-10-16T09:48:28;24.70;;;13.93;;
32918;SDS011;19280;42.646;21.150;2022-10-16T09:51:04;28.27;;;14.25;;
32918;SDS011;19280;42.646;21.150;2022-10-16T09:53:38;21.45;;;13.43;;
32918;SDS011;19280;42.646;21.150;2022-10-16T09:56:05;22.35;;;14.50;;
32918;SDS011;19280;42.646;21.150;2022-10-16T09:58:31;21.83;;;13.95;;
32918;SDS011;19280;42.646;21.150;2022-10-16T10:00:58;20.10;;;13.35;;
32918;SDS011;19280;42.646;21.150;2022-10-16T10:03:38;20.00;;;14.77;;
32918;SDS011;19280;42.646;21.150;2022-10-16T10:06:07;19.80;;;13.60;;
32918;SDS011;19280;42.646;21.150;2022-10-16T10:08:41;18.77;;;15.13;;
32918;SDS011;19280;42.646;21.150;2022-10-16T10:11:07;19.85;;;15.18;;
32918;SDS011;19280;42.646;21.150;2022-10-16T10:13:33;21.73;;;15.45;;
32918;SDS011;19280;42.646;21.150;2022-10-16T10:15:59;38.25;;;16.05;;
32918;SDS011;19280;42.646;21.150;2022-10-16T10:18:25;20.60;;;14.93;;
32918;SDS011;19280;42.646;21.150;2022-10-16T10:21:01;24.45;;;14.80;;
32918;SDS011;19280;42.646;21.150;2022-10-16T10:23:30;18.88;;;14.52;;
32918;SDS011;19280;42.646;21.150;2022-10-16T10:28:47;21.42;;;14.38;;
32918;SDS011;19280;42.646;21.150;2022-10-16T10:31:19;28.17;;;15.95;;
32918;SDS011;19280;42.646;21.150;2022-10-16T10:36:22;27.00;;;15.73;;
32918;SDS011;19280;42.646;21.150;2022-10-16T10:38:57;23.25;;;13.02;;
32918;SDS011;19280;42.646;21.150;2022-10-16T10:41:38;23.88;;;13.75;;
32918;SDS011;19280;42.646;21.150;2022-10-16T10:46:57;21.13;;;14.73;;
32918;SDS011;19280;42.646;21.150;2022-10-16T10:54:29;23.23;;;15.88;;
32918;SDS011;19280;42.646;21.150;2022-10-16T11:10:58;18.08;;;12.63;;
32918;SDS011;19280;42.646;21.150;2022-10-16T11:13:27;25.30;;;14.00;;
32918;SDS011;19280;42.646;21.150;2022-10-16T11:16:02;20.88;;;13.05;;
32918;SDS011;19280;42.646;21.150;2022-10-16T11:18:37;17.67;;;10.77;;
32918;SDS011;19280;42.646;21.150;2022-10-16T11:21:07;18.55;;;10.45;;
32918;SDS011;19280;42.646;21.150;2022-10-16T11:23:42;13.13;;;9.82;;
32918;SDS011;19280;42.646;21.150;2022-10-16T11:26:16;15.98;;;8.90;;
32918;SDS011;19280;42.646;21.150;2022-10-16T11:28:45;17.50;;;8.02;;
32918;SDS011;19280;42.646;21.150;2022-10-16T11:31:20;13.93;;;6.57;;
32918;SDS011;19280;42.646;21.150;2022-10-16T11:33:52;13.68;;;8.27;;
32918;SDS011;19280;42.646;21.150;2022-10-16T11:39:19;14.35;;;7.18;;
32918;SDS011;19280;42.646;21.150;2022-10-16T11:42:11;14.23;;;7.55;;
32918;SDS011;19280;42.646;21.150;2022-10-16T11:44:44;12.93;;;7.63;;
32918;SDS011;19280;42.646;21.150;2022-10-16T11:47:23;15.30;;;8.25;;
32918;SDS011;19280;42.646;21.150;2022-10-16T11:49:53;13.60;;;7.97;;
32918;SDS011;19280;42.646;21.150;2022-10-16T11:54:49;11.50;;;8.13;;
32918;SDS011;19280;42.646;21.150;2022-10-16T11:57:19;16.58;;;7.78;;
32918;SDS011;19280;42.646;21.150;2022-10-16T11:59:48;12.38;;;7.55;;
32918;SDS011;19280;42.646;21.150;2022-10-16T12:04:51;13.05;;;6.82;;
32918;SDS011;19280;42.646;21.150;2022-10-16T12:07:26;11.70;;;6.90;;
32918;SDS011;19280;42.646;21.150;2022-10-16T12:09:53;12.45;;;6.47;;
32918;SDS011;19280;42.646;21.150;2022-10-16T12:12:27;14.80;;;7.38;;
32918;SDS011;19280;42.646;21.150;2022-10-16T12:15:15;17.00;;;6.43;;
32918;SDS011;19280;42.646;21.150;2022-10-16T12:17:41;10.43;;;7.32;;
32918;SDS011;19280;42.646;21.150;2022-10-16T12:25:22;8.90;;;5.85;;
32918;SDS011;19280;42.646;21.150;2022-10-16T12:27:59;15.93;;;7.45;;
32918;SDS011;19280;42.646;21.150;2022-10-16T12:30:27;8.18;;;6.20;;
32918;SDS011;19280;42.646;21.150;2022-10-16T12:32:57;10.88;;;6.15;;
32918;SDS011;19280;42.646;21.150;2022-10-16T12:35:28;11.65;;;6.18;;
32918;SDS011;19280;42.646;21.150;2022-10-16T12:38:06;10.35;;;6.15;;
32918;SDS011;19280;42.646;21.150;2022-10-16T12:40:34;15.85;;;8.82;;
32918;SDS011;19280;42.646;21.150;2022-10-16T12:43:11;11.93;;;6.78;;
32918;SDS011;19280;42.646;21.150;2022-10-16T12:45:37;11.70;;;5.95;;
32918;SDS011;19280;42.646;21.150;2022-10-16T12:48:04;7.32;;;5.70;;
32918;SDS011;19280;42.646;21.150;2022-10-16T12:50:44;12.52;;;5.82;;
32918;SDS011;19280;42.646;21.150;2022-10-16T12:53:20;11.73;;;6.53;;
32918;SDS011;19280;42.646;21.150;2022-10-16T13:01:06;13.23;;;6.47;;
32918;SDS011;19280;42.646;21.150;2022-10-16T13:08:57;8.70;;;6.00;;
32918;SDS011;19280;42.646;21.150;2022-10-16T13:22:19;15.32;;;8.30;;
32918;SDS011;19280;42.646;21.150;2022-10-16T13:30:30;17.23;;;9.52;;
32918;SDS011;19280;42.646;21.150;2022-10-16T13:33:01;18.85;;;8.32;;
32918;SDS011;19280;42.646;21.150;2022-10-16T13:35:29;16.13;;;8.73;;
32918;SDS011;19280;42.646;21.150;2022-10-16T13:40:37;19.55;;;8.85;;
32918;SDS011;19280;42.646;21.150;2022-10-16T13:43:13;25.10;;;8.75;;
32918;SDS011;19280;42.646;21.150;2022-10-16T13:45:39;15.30;;;8.80;;
32918;SDS011;19280;42.646;21.150;2022-10-16T13:48:06;17.75;;;9.27;;
32918;SDS011;19280;42.646;21.150;2022-10-16T13:50:37;20.00;;;9.15;;
32918;SDS011;19280;42.646;21.150;2022-10-16T13:53:12;18.00;;;9.38;;
32918;SDS011;19280;42.646;21.150;2022-10-16T13:55:39;15.02;;;8.15;;
32918;SDS011;19280;42.646;21.150;2022-10-16T13:58:10;17.13;;;8.88;;
32918;SDS011;19280;42.646;21.150;2022-10-16T14:00:38;15.73;;;9.63;;
32918;SDS011;19280;42.646;21.150;2022-10-16T14:03:12;17.17;;;9.65;;
32918;SDS011;19280;42.646;21.150;2022-10-16T14:05:58;19.17;;;9.93;;
32918;SDS011;19280;42.646;21.150;2022-10-16T14:08:25;19.52;;;10.85;;
32918;SDS011;19280;42.646;21.150;2022-10-16T14:10:53;21.95;;;10.52;;
32918;SDS011;19280;42.646;21.150;2022-10-16T14:13:28;19.00;;;10.25;;
32918;SDS011;19280;42.646;21.150;2022-10-16T14:15:55;17.60;;;11.07;;
32918;SDS011;19280;42.646;21.150;2022-10-16T14:18:24;24.52;;;10.43;;
32918;SDS011;19280;42.646;21.150;2022-10-16T14:20:51;23.58;;;12.00;;
32918;SDS011;19280;42.646;21.150;2022-10-16T14:23:28;23.67;;;10.30;;
32918;SDS011;19280;42.646;21.150;2022-10-16T14:26:05;26.05;;;10.93;;
32918;SDS011;19280;42.646;21.150;2022-10-16T14:28:31;24.95;;;9.85;;
32918;SDS011;19280;42.646;21.150;2022-10-16T14:30:58;24.38;;;10.20;;
32918;SDS011;19280;42.646;21.150;2022-10-16T14:38:39;21.00;;;9.40;;
32918;SDS011;19280;42.646;21.150;2022-10-16T14:41:07;19.15;;;9.43;;
32918;SDS011;19280;42.646;21.150;2022-10-16T14:43:40;20.27;;;8.68;;
32918;SDS011;19280;42.646;21.150;2022-10-16T14:46:09;17.90;;;10.10;;
32918;SDS011;19280;42.646;21.150;2022-10-16T14:48:41;21.38;;;11.05;;
32918;SDS011;19280;42.646;21.150;2022-10-16T14:51:13;21.23;;;9.35;;
32918;SDS011;19280;42.646;21.150;2022-10-16T14:53:39;23.67;;;9.88;;
32918;SDS011;19280;42.646;21.150;2022-10-16T14:56:07;20.42;;;10.38;;
32918;SDS011;19280;42.646;21.150;2022-10-16T14:58:33;24.05;;;12.02;;
32918;SDS011;19280;42.646;21.150;2022-10-16T15:01:00;23.50;;;12.30;;
32918;SDS011;19280;42.646;21.150;2022-10-16T15:03:27;24.38;;;11.38;;
32918;SDS011;19280;42.646;21.150;2022-10-16T15:05:53;34.95;;;13.25;;
32918;SDS011;19280;42.646;21.150;2022-10-16T15:08:19;23.50;;;11.55;;
32918;SDS011;19280;42.646;21.150;2022-10-16T15:10:45;20.75;;;11.65;;
32918;SDS011;19280;42.646;21.150;2022-10-16T15:13:12;20.10;;;12.90;;
32918;SDS011;19280;42.646;21.150;2022-10-16T15:18:07;37.05;;;19.60;;
32918;SDS011;19280;42.646;21.150;2022-10-16T15:20:34;33.75;;;21.15;;
32918;SDS011;19280;42.646;21.150;2022-10-16T15:23:02;44.80;;;20.80;;
32918;SDS011;19280;42.646;21.150;2022-10-16T15:27:58;16.40;;;9.07;;
32918;SDS011;19280;42.646;21.150;2022-10-16T15:30:24;13.43;;;6.72;;
32918;SDS011;19280;42.646;21.150;2022-10-16T15:32:50;58.58;;;27.85;;
32918;SDS011;19280;42.646;21.150;2022-10-16T15:35:16;73.57;;;36.28;;
32918;SDS011;19280;42.646;21.150;2022-10-16T15:37:43;51.63;;;23.90;;
32918;SDS011;19280;42.646;21.150;2022-10-16T15:40:10;48.03;;;21.50;;
32918;SDS011;19280;42.646;21.150;2022-10-16T15:42:36;50.45;;;23.73;;
32918;SDS011;19280;42.646;21.150;2022-10-16T15:45:02;61.17;;;29.83;;
32918;SDS011;19280;42.646;21.150;2022-10-16T15:47:29;65.78;;;31.52;;
32918;SDS011;19280;42.646;21.150;2022-10-16T15:49:55;35.47;;;17.92;;
32918;SDS011;19280;42.646;21.150;2022-10-16T15:52:21;45.08;;;22.92;;
32918;SDS011;19280;42.646;21.150;2022-10-16T15:54:47;38.10;;;21.77;;
32918;SDS011;19280;42.646;21.150;2022-10-16T15:57:14;41.08;;;16.00;;
32918;SDS011;19280;42.646;21.150;2022-10-16T15:59:40;21.92;;;9.98;;
32918;SDS011;19280;42.646;21.150;2022-10-16T16:02:07;32.90;;;14.48;;
32918;SDS011;19280;42.646;21.150;2022-10-16T16:04:33;34.65;;;13.55;;
32918;SDS011;19280;42.646;21.150;2022-10-16T16:07:00;39.78;;;13.32;;
32918;SDS011;19280;42.646;21.150;2022-10-16T16:09:28;28.45;;;14.38;;
32918;SDS011;19280;42.646;21.150;2022-10-16T16:11:54;31.98;;;11.70;;
32918;SDS011;19280;42.646;21.150;2022-10-16T16:14:20;23.13;;;11.23;;